Plan B — ZGCC2 — position and weather

sailwx.info

Track history (hours):
 
Tides and Currents Weather Stations Pressure Air Temp Water Temp Dewpoint Dewpoint Depression Visibility Wind Speed Wind Dir Waves Ship Positions

Plan B

Last reported at 2014-Sep-18 11:32 UTC. Time now 2014-Sep-18 11:46 UTC.
Position N 43°32' E 007°01'.

Length 73 m; draft 3.6 m.

Type: Pleasure craft. MMSI: 319618000.

Date/timePositionNaut miles runAvg speedWind from/ knotsBaromVisibWave heightAir tempDewpointWater temp
2014-Sep-18 11:32N 43°32' E 007°01'0 0.0
2014-Sep-18 10:11N 43°32' E 007°01'0 0.0
2014-Sep-18 09:32N 43°32' E 007°01'0 0.0
2014-Sep-18 08:26N 43°32' E 007°01'0 0.0
2014-Sep-18 07:32N 43°32' E 007°01'0 0.0
2014-Sep-18 06:32N 43°32' E 007°01'0 0.0
2014-Sep-18 05:32N 43°32' E 007°01'0 0.0
2014-Sep-18 04:32N 43°32' E 007°01'0 0.0
2014-Sep-18 03:32N 43°32' E 007°01'0 0.0
2014-Sep-18 02:32N 43°32' E 007°01'0 0.0
2014-Sep-18 01:29N 43°32' E 007°01'0 0.0
2014-Sep-18 00:26N 43°32' E 007°01'0 0.0
2014-Sep-17 23:32N 43°32' E 007°01'0 0.0
2014-Sep-17 22:32N 43°32' E 007°01'0 0.0
2014-Sep-17 21:32N 43°32' E 007°01'0 0.0
2014-Sep-17 20:32N 43°32' E 007°01'0 0.0
2014-Sep-17 19:32N 43°32' E 007°01'0 0.0
2014-Sep-17 18:14N 43°32' E 007°01'0 0.0
2014-Sep-17 17:32N 43°32' E 007°01'0 0.0
2014-Sep-17 16:32N 43°32' E 007°01'0 0.0
2014-Sep-17 15:32N 43°32' E 007°01'0 0.0
2014-Sep-17 14:32N 43°32' E 007°01'0 0.0
2014-Sep-17 13:32N 43°32' E 007°01'0 0.0
2014-Sep-17 12:32N 43°32' E 007°01'0 0.0
2014-Sep-17 11:32N 43°32' E 007°01'0 0.0
2014-Sep-17 10:26N 43°32' E 007°01'0 0.0
2014-Sep-17 09:32N 43°32' E 007°01'0 0.0
2014-Sep-17 08:32N 43°32' E 007°01'0 0.0
2014-Sep-17 07:32N 43°32' E 007°01'0 0.0
2014-Sep-17 06:26N 43°32' E 007°01'0 0.0
2014-Sep-17 05:32N 43°32' E 007°01'0 0.0
2014-Sep-17 04:26N 43°32' E 007°01'0 0.0
2014-Sep-17 03:32N 43°32' E 007°01'0 0.0
2014-Sep-17 02:32N 43°32' E 007°01'0 0.0
2014-Sep-17 01:32N 43°32' E 007°01'0 0.0
2014-Sep-17 00:32N 43°32' E 007°01'0 0.0
2014-Sep-16 23:21N 43°32' E 007°01'7 8.5
2014-Sep-16 22:33N 43°26' E 006°57'1414.1
2014-Sep-16 21:33N 43°18' E 006°42'3 2.9
2014-Sep-16 20:26N 43°16' E 006°38'0 0.0
2014-Sep-16 19:32N 43°16' E 006°38'0 0.0
2014-Sep-16 18:23N 43°16' E 006°38'0 0.0
2014-Sep-16 17:32N 43°16' E 006°38'0 0.0
2014-Sep-16 16:32N 43°16' E 006°38'0 0.0
2014-Sep-16 15:32N 43°16' E 006°38'4 4.1
2014-Sep-16 14:33N 43°17' E 006°43'4 4.0
2014-Sep-16 13:33N 43°13' E 006°40'0 0.0
2014-Sep-16 12:34N 43°13' E 006°40'1 0.7
2014-Sep-16 11:31N 43°14' E 006°41'1414.7
2014-Sep-16 10:33N 43°24' E 006°55'1716.7
2014-Sep-16 09:33N 43°35' E 007°13'7 7.4
2014-Sep-16 08:33N 43°41' E 007°18'1 1.3
2014-Sep-16 07:33N 43°42' E 007°19'0 0.0
2014-Sep-16 06:33N 43°42' E 007°19'0 0.0
2014-Sep-16 05:33N 43°42' E 007°19'0 0.0
2014-Sep-16 04:33N 43°42' E 007°19'0 0.0
2014-Sep-16 03:33N 43°42' E 007°19'0 0.0
2014-Sep-16 02:33N 43°42' E 007°19'0 0.0
2014-Sep-16 01:33N 43°42' E 007°19'0 0.0
2014-Sep-16 00:33N 43°42' E 007°19'0 0.0
2014-Sep-15 23:33N 43°42' E 007°19'0 0.0
2014-Sep-15 22:32N 43°42' E 007°19'0 0.0
2014-Sep-15 21:33N 43°42' E 007°19'0 0.0
2014-Sep-15 20:32N 43°42' E 007°19'0 0.0
2014-Sep-15 19:33N 43°42' E 007°19'0 0.0
2014-Sep-15 18:33N 43°42' E 007°19'0 0.0
2014-Sep-15 17:29N 43°42' E 007°19'0 0.0
2014-Sep-15 16:06N 43°42' E 007°19'0 0.0
2014-Sep-15 15:33N 43°42' E 007°19'0 0.0
2014-Sep-15 14:33N 43°42' E 007°19'0 0.0
2014-Sep-15 13:33N 43°42' E 007°19'0 0.0
2014-Sep-15 12:33N 43°42' E 007°19'0 0.0
2014-Sep-15 11:33N 43°42' E 007°19'0 0.0
2014-Sep-15 10:33N 43°42' E 007°19'0 0.0
2014-Sep-15 09:33N 43°42' E 007°19'0 0.0
2014-Sep-15 08:33N 43°42' E 007°19'0 0.0
2014-Sep-15 07:33N 43°42' E 007°19'0 0.0
2014-Sep-15 06:33N 43°42' E 007°19'0 0.0
2014-Sep-15 05:33N 43°42' E 007°19'0 0.0
2014-Sep-15 04:33N 43°42' E 007°19'0 0.0
2014-Sep-15 03:33N 43°42' E 007°19'0 0.0
2014-Sep-15 02:32N 43°42' E 007°19'0 0.0
2014-Sep-15 01:33N 43°42' E 007°19'0 0.0
2014-Sep-15 00:33N 43°42' E 007°19'0 0.0
2014-Sep-14 23:32N 43°42' E 007°19'0 0.0
2014-Sep-14 22:33N 43°42' E 007°19'0 0.0
2014-Sep-14 21:33N 43°42' E 007°19'0 0.0
2014-Sep-14 20:33N 43°42' E 007°19'0 0.0
2014-Sep-14 19:33N 43°42' E 007°19'0 0.0
2014-Sep-14 18:33N 43°42' E 007°19'0 0.0
2014-Sep-14 17:33N 43°42' E 007°19'0 0.0
2014-Sep-14 16:33N 43°42' E 007°19'0 0.0
2014-Sep-14 15:33N 43°42' E 007°19'0 0.0
2014-Sep-14 14:25N 43°42' E 007°19'0 0.0
2014-Sep-14 13:33N 43°42' E 007°19'0 0.0
2014-Sep-14 12:33N 43°42' E 007°19'0 0.0
2014-Sep-14 11:33N 43°42' E 007°19'0 0.0
2014-Sep-14 10:33N 43°42' E 007°19'0 0.0
2014-Sep-14 09:33N 43°42' E 007°19'0 0.0
2014-Sep-14 08:33N 43°42' E 007°19'0 0.0
2014-Sep-14 07:33N 43°42' E 007°19'0 0.0
2014-Sep-14 06:33N 43°42' E 007°19'0 0.0
2014-Sep-14 05:33N 43°42' E 007°19'0 0.0
2014-Sep-14 04:33N 43°42' E 007°19'0 0.0
2014-Sep-14 03:32N 43°42' E 007°19'0 0.0
2014-Sep-14 02:33N 43°42' E 007°19'0 0.0
2014-Sep-14 01:33N 43°42' E 007°19'0 0.0
2014-Sep-13 21:33N 43°42' E 007°19'0 0.0
2014-Sep-13 20:33N 43°42' E 007°19'0 0.0
2014-Sep-13 19:33N 43°42' E 007°19'0 0.0
2014-Sep-13 18:28N 43°42' E 007°19'0 0.0
2014-Sep-13 17:33N 43°42' E 007°19'0 0.0
2014-Sep-13 16:33N 43°42' E 007°19'0 0.0
2014-Sep-13 15:33N 43°42' E 007°19'0 0.0
2014-Sep-13 14:33N 43°42' E 007°19'0 0.0
2014-Sep-13 13:33N 43°42' E 007°19'0 0.0
2014-Sep-13 12:33N 43°42' E 007°19'0 0.0
2014-Sep-13 11:33N 43°42' E 007°19'0 0.0
2014-Sep-13 10:33N 43°42' E 007°19'0 0.0
2014-Sep-13 09:33N 43°42' E 007°19'0 0.0
2014-Sep-13 08:32N 43°42' E 007°19'0 0.0
2014-Sep-13 07:33N 43°42' E 007°19'0 0.0
2014-Sep-13 06:33N 43°42' E 007°19'0 0.0
2014-Sep-13 05:33N 43°42' E 007°19'0 0.0
2014-Sep-13 04:33N 43°42' E 007°19'0 0.0
2014-Sep-13 03:33N 43°42' E 007°19'0 0.0
2014-Sep-13 02:33N 43°42' E 007°19'0 0.0
2014-Sep-13 01:33N 43°42' E 007°19'0 0.0
2014-Sep-13 00:33N 43°42' E 007°19'0 0.0
2014-Sep-12 23:33N 43°42' E 007°19'0 0.0
2014-Sep-12 22:33N 43°42' E 007°19'0 0.0
2014-Sep-12 21:33N 43°42' E 007°19'0 0.0
2014-Sep-12 20:33N 43°42' E 007°19'0 0.0
2014-Sep-12 19:33N 43°42' E 007°19'0 0.0
2014-Sep-12 18:33N 43°42' E 007°19'0 0.0
2014-Sep-12 17:33N 43°42' E 007°19'0 0.0
2014-Sep-12 16:33N 43°42' E 007°19'0 0.0
2014-Sep-12 15:26N 43°42' E 007°19'0 0.0
2014-Sep-12 14:33N 43°42' E 007°19'0 0.0
2014-Sep-12 13:33N 43°42' E 007°19'0 0.0
2014-Sep-12 12:33N 43°42' E 007°19'0 0.0
2014-Sep-12 11:34N 43°42' E 007°19'0 0.0
2014-Sep-12 10:34N 43°42' E 007°19'0 0.0
2014-Sep-12 09:33N 43°42' E 007°19'0 0.0
2014-Sep-12 08:33N 43°42' E 007°19'0 0.0
2014-Sep-12 07:33N 43°42' E 007°19'0 0.0
2014-Sep-12 06:33N 43°42' E 007°19'0 0.0
2014-Sep-12 05:33N 43°42' E 007°19'0 0.0
2014-Sep-12 04:33N 43°42' E 007°19'0 0.0
2014-Sep-12 03:33N 43°42' E 007°19'0 0.0
2014-Sep-12 02:33N 43°42' E 007°19'0 0.0
2014-Sep-12 01:33N 43°42' E 007°19'0 0.0
2014-Sep-12 00:33N 43°42' E 007°19'0 0.0
2014-Sep-11 23:33N 43°42' E 007°19'0 0.0
2014-Sep-11 22:33N 43°42' E 007°19'0 0.0
2014-Sep-11 21:33N 43°42' E 007°19'0 0.0
2014-Sep-11 20:33N 43°42' E 007°19'0 0.0
2014-Sep-11 19:33N 43°42' E 007°19'0 0.0
2014-Sep-11 18:33N 43°42' E 007°19'0 0.0
2014-Sep-11 17:33N 43°42' E 007°19'0 0.0
2014-Sep-11 16:33N 43°42' E 007°19'0 0.0
2014-Sep-11 15:33N 43°42' E 007°19'0 0.0
2014-Sep-11 14:33N 43°42' E 007°19'0 0.0
2014-Sep-11 13:33N 43°42' E 007°19'0 0.0
2014-Sep-11 12:33N 43°42' E 007°19'0 0.0
2014-Sep-11 11:33N 43°42' E 007°19'0 0.0
2014-Sep-11 10:33N 43°42' E 007°19'0 0.0
2014-Sep-11 09:33N 43°42' E 007°19'0 0.0
2014-Sep-11 08:33N 43°42' E 007°19'0 0.0
2014-Sep-11 07:33N 43°42' E 007°19'0 0.0
2014-Sep-11 06:33N 43°42' E 007°19'0 0.0
2014-Sep-11 05:33N 43°42' E 007°19'0 0.0
2014-Sep-11 04:33N 43°42' E 007°19'0 0.0
2014-Sep-11 03:33N 43°42' E 007°19'0 0.0
2014-Sep-11 02:33N 43°42' E 007°19'0 0.0
2014-Sep-11 01:32N 43°42' E 007°19'0 0.0
2014-Sep-11 00:32N 43°42' E 007°19'0 0.0
2014-Sep-10 23:33N 43°42' E 007°19'0 0.0
2014-Sep-10 22:32N 43°42' E 007°19'0 0.0
2014-Sep-10 21:33N 43°42' E 007°19'0 0.0
2014-Sep-10 20:33N 43°42' E 007°19'0 0.0
2014-Sep-10 19:33N 43°42' E 007°19'0 0.0
2014-Sep-10 18:32N 43°42' E 007°19'0 0.0
2014-Sep-10 17:33N 43°42' E 007°19'0 0.0
2014-Sep-10 16:32N 43°42' E 007°19'0 0.0
2014-Sep-10 15:33N 43°42' E 007°19'0 0.0
2014-Sep-10 14:33N 43°42' E 007°19'0 0.0
2014-Sep-10 13:33N 43°42' E 007°19'0 0.0
2014-Sep-10 12:33N 43°42' E 007°19'0 0.0
2014-Sep-10 11:33N 43°42' E 007°19'0 0.0
2014-Sep-10 10:31N 43°42' E 007°19'0 0.0
2014-Sep-10 09:33N 43°42' E 007°19'0 0.0
2014-Sep-10 08:33N 43°42' E 007°19'0 0.0
2014-Sep-10 07:33N 43°42' E 007°19'0 0.0
2014-Sep-10 06:33N 43°42' E 007°19'0 0.0
2014-Sep-10 05:33N 43°42' E 007°19'0 0.0
2014-Sep-10 03:33N 43°42' E 007°19'0 0.0
2014-Sep-10 02:21N 43°42' E 007°19'0 0.0
2014-Sep-10 01:26N 43°42' E 007°19'0 0.0
2014-Sep-10 00:30N 43°42' E 007°19'0 0.0
2014-Sep-09 23:33N 43°42' E 007°19'0 0.0
2014-Sep-09 22:10N 43°42' E 007°19'0 0.0
2014-Sep-09 21:06N 43°42' E 007°19'0 0.0
2014-Sep-09 18:07N 43°42' E 007°19'0 0.0
2014-Sep-09 17:23N 43°42' E 007°19'0 0.0
2014-Sep-09 16:17N 43°42' E 007°19'0 0.0
2014-Sep-09 15:33N 43°42' E 007°19'0 0.0
2014-Sep-09 14:33N 43°42' E 007°19'0 0.0
2014-Sep-09 13:33N 43°42' E 007°19'0 0.0
2014-Sep-09 12:33N 43°42' E 007°19'0 0.0
2014-Sep-09 11:33N 43°42' E 007°19'0 0.0
2014-Sep-09 10:33N 43°42' E 007°19'0 0.0
2014-Sep-09 09:33N 43°42' E 007°19'0 0.0
2014-Sep-09 08:33N 43°42' E 007°19'0 0.0
2014-Sep-09 07:33N 43°42' E 007°19'0 0.0
2014-Sep-09 06:33N 43°42' E 007°19'0 0.0
2014-Sep-09 05:33N 43°42' E 007°19'0 0.0
2014-Sep-09 04:25N 43°42' E 007°19'0 0.0
2014-Sep-09 03:23N 43°42' E 007°19'0 0.0
2014-Sep-09 02:33N 43°42' E 007°19'0 0.0
2014-Sep-09 01:33N 43°42' E 007°19'0 0.0
2014-Sep-09 00:32N 43°42' E 007°19'0 0.0
2014-Sep-08 23:33N 43°42' E 007°19'0 0.0
2014-Sep-08 22:33N 43°42' E 007°19'0 0.0
2014-Sep-08 21:33N 43°42' E 007°19'0 0.0
2014-Sep-08 20:33N 43°42' E 007°19'0 0.0
2014-Sep-08 19:33N 43°42' E 007°19'0 0.0
2014-Sep-08 18:32N 43°42' E 007°19'0 0.0
2014-Sep-08 17:33N 43°42' E 007°19'0 0.0
2014-Sep-08 16:33N 43°42' E 007°19'0 0.0
2014-Sep-08 15:33N 43°42' E 007°19'0 0.0
2014-Sep-08 14:33N 43°42' E 007°19'0 0.0
2014-Sep-08 13:32N 43°42' E 007°19'0 0.0
2014-Sep-08 12:33N 43°42' E 007°19'0 0.0
2014-Sep-08 11:33N 43°42' E 007°19'  
Track history (hours):
 
Tides and Currents Weather Stations Pressure Air Temp Water Temp Dewpoint Dewpoint Depression Visibility Wind Speed Wind Dir Waves Ship Positions

Plan B

Last reported at 2014-Sep-18 11:32 UTC. Time now 2014-Sep-18 11:46 UTC.
Position N 43°32' E 007°01'.

Length 73 m; draft 3.6 m.

Type: Pleasure craft. MMSI: 319618000.

Date/timePositionNaut miles runAvg speedWind from/ knotsBaromVisibWave heightAir tempDewpointWater temp
2014-Sep-18 11:32N 43°32' E 007°01'0 0.0
2014-Sep-18 10:11N 43°32' E 007°01'0 0.0
2014-Sep-18 09:32N 43°32' E 007°01'0 0.0
2014-Sep-18 08:26N 43°32' E 007°01'0 0.0
2014-Sep-18 07:32N 43°32' E 007°01'0 0.0
2014-Sep-18 06:32N 43°32' E 007°01'0 0.0
2014-Sep-18 05:32N 43°32' E 007°01'0 0.0
2014-Sep-18 04:32N 43°32' E 007°01'0 0.0
2014-Sep-18 03:32N 43°32' E 007°01'0 0.0
2014-Sep-18 02:32N 43°32' E 007°01'0 0.0
2014-Sep-18 01:29N 43°32' E 007°01'0 0.0
2014-Sep-18 00:26N 43°32' E 007°01'0 0.0
2014-Sep-17 23:32N 43°32' E 007°01'0 0.0
2014-Sep-17 22:32N 43°32' E 007°01'0 0.0
2014-Sep-17 21:32N 43°32' E 007°01'0 0.0
2014-Sep-17 20:32N 43°32' E 007°01'0 0.0
2014-Sep-17 19:32N 43°32' E 007°01'0 0.0
2014-Sep-17 18:14N 43°32' E 007°01'0 0.0
2014-Sep-17 17:32N 43°32' E 007°01'0 0.0
2014-Sep-17 16:32N 43°32' E 007°01'0 0.0
2014-Sep-17 15:32N 43°32' E 007°01'0 0.0
2014-Sep-17 14:32N 43°32' E 007°01'0 0.0
2014-Sep-17 13:32N 43°32' E 007°01'0 0.0
2014-Sep-17 12:32N 43°32' E 007°01'0 0.0
2014-Sep-17 11:32N 43°32' E 007°01'0 0.0
2014-Sep-17 10:26N 43°32' E 007°01'0 0.0
2014-Sep-17 09:32N 43°32' E 007°01'0 0.0
2014-Sep-17 08:32N 43°32' E 007°01'0 0.0
2014-Sep-17 07:32N 43°32' E 007°01'0 0.0
2014-Sep-17 06:26N 43°32' E 007°01'0 0.0
2014-Sep-17 05:32N 43°32' E 007°01'0 0.0
2014-Sep-17 04:26N 43°32' E 007°01'0 0.0
2014-Sep-17 03:32N 43°32' E 007°01'0 0.0
2014-Sep-17 02:32N 43°32' E 007°01'0 0.0
2014-Sep-17 01:32N 43°32' E 007°01'0 0.0
2014-Sep-17 00:32N 43°32' E 007°01'0 0.0
2014-Sep-16 23:21N 43°32' E 007°01'7 8.5
2014-Sep-16 22:33N 43°26' E 006°57'1414.1
2014-Sep-16 21:33N 43°18' E 006°42'3 2.9
2014-Sep-16 20:26N 43°16' E 006°38'0 0.0
2014-Sep-16 19:32N 43°16' E 006°38'0 0.0
2014-Sep-16 18:23N 43°16' E 006°38'0 0.0
2014-Sep-16 17:32N 43°16' E 006°38'0 0.0
2014-Sep-16 16:32N 43°16' E 006°38'0 0.0
2014-Sep-16 15:32N 43°16' E 006°38'4 4.1
2014-Sep-16 14:33N 43°17' E 006°43'4 4.0
2014-Sep-16 13:33N 43°13' E 006°40'0 0.0
2014-Sep-16 12:34N 43°13' E 006°40'1 0.7
2014-Sep-16 11:31N 43°14' E 006°41'1414.7
2014-Sep-16 10:33N 43°24' E 006°55'1716.7
2014-Sep-16 09:33N 43°35' E 007°13'7 7.4
2014-Sep-16 08:33N 43°41' E 007°18'1 1.3
2014-Sep-16 07:33N 43°42' E 007°19'0 0.0
2014-Sep-16 06:33N 43°42' E 007°19'0 0.0
2014-Sep-16 05:33N 43°42' E 007°19'0 0.0
2014-Sep-16 04:33N 43°42' E 007°19'0 0.0
2014-Sep-16 03:33N 43°42' E 007°19'0 0.0
2014-Sep-16 02:33N 43°42' E 007°19'0 0.0
2014-Sep-16 01:33N 43°42' E 007°19'0 0.0
2014-Sep-16 00:33N 43°42' E 007°19'0 0.0
2014-Sep-15 23:33N 43°42' E 007°19'0 0.0
2014-Sep-15 22:32N 43°42' E 007°19'0 0.0
2014-Sep-15 21:33N 43°42' E 007°19'0 0.0
2014-Sep-15 20:32N 43°42' E 007°19'0 0.0
2014-Sep-15 19:33N 43°42' E 007°19'0 0.0
2014-Sep-15 18:33N 43°42' E 007°19'0 0.0
2014-Sep-15 17:29N 43°42' E 007°19'0 0.0
2014-Sep-15 16:06N 43°42' E 007°19'0 0.0
2014-Sep-15 15:33N 43°42' E 007°19'0 0.0
2014-Sep-15 14:33N 43°42' E 007°19'0 0.0
2014-Sep-15 13:33N 43°42' E 007°19'0 0.0
2014-Sep-15 12:33N 43°42' E 007°19'0 0.0
2014-Sep-15 11:33N 43°42' E 007°19'0 0.0
2014-Sep-15 10:33N 43°42' E 007°19'0 0.0
2014-Sep-15 09:33N 43°42' E 007°19'0 0.0
2014-Sep-15 08:33N 43°42' E 007°19'0 0.0
2014-Sep-15 07:33N 43°42' E 007°19'0 0.0
2014-Sep-15 06:33N 43°42' E 007°19'0 0.0
2014-Sep-15 05:33N 43°42' E 007°19'0 0.0
2014-Sep-15 04:33N 43°42' E 007°19'0 0.0
2014-Sep-15 03:33N 43°42' E 007°19'0 0.0
2014-Sep-15 02:32N 43°42' E 007°19'0 0.0
2014-Sep-15 01:33N 43°42' E 007°19'0 0.0
2014-Sep-15 00:33N 43°42' E 007°19'0 0.0
2014-Sep-14 23:32N 43°42' E 007°19'0 0.0
2014-Sep-14 22:33N 43°42' E 007°19'0 0.0
2014-Sep-14 21:33N 43°42' E 007°19'0 0.0
2014-Sep-14 20:33N 43°42' E 007°19'0 0.0
2014-Sep-14 19:33N 43°42' E 007°19'0 0.0
2014-Sep-14 18:33N 43°42' E 007°19'0 0.0
2014-Sep-14 17:33N 43°42' E 007°19'0 0.0
2014-Sep-14 16:33N 43°42' E 007°19'0 0.0
2014-Sep-14 15:33N 43°42' E 007°19'0 0.0
2014-Sep-14 14:25N 43°42' E 007°19'0 0.0
2014-Sep-14 13:33N 43°42' E 007°19'0 0.0
2014-Sep-14 12:33N 43°42' E 007°19'0 0.0
2014-Sep-14 11:33N 43°42' E 007°19'0 0.0
2014-Sep-14 10:33N 43°42' E 007°19'0 0.0
2014-Sep-14 09:33N 43°42' E 007°19'0 0.0
2014-Sep-14 08:33N 43°42' E 007°19'0 0.0
2014-Sep-14 07:33N 43°42' E 007°19'0 0.0
2014-Sep-14 06:33N 43°42' E 007°19'0 0.0
2014-Sep-14 05:33N 43°42' E 007°19'0 0.0
2014-Sep-14 04:33N 43°42' E 007°19'0 0.0
2014-Sep-14 03:32N 43°42' E 007°19'0 0.0
2014-Sep-14 02:33N 43°42' E 007°19'0 0.0
2014-Sep-14 01:33N 43°42' E 007°19'0 0.0
2014-Sep-13 21:33N 43°42' E 007°19'0 0.0
2014-Sep-13 20:33N 43°42' E 007°19'0 0.0
2014-Sep-13 19:33N 43°42' E 007°19'0 0.0
2014-Sep-13 18:28N 43°42' E 007°19'0 0.0
2014-Sep-13 17:33N 43°42' E 007°19'0 0.0
2014-Sep-13 16:33N 43°42' E 007°19'0 0.0
2014-Sep-13 15:33N 43°42' E 007°19'0 0.0
2014-Sep-13 14:33N 43°42' E 007°19'0 0.0
2014-Sep-13 13:33N 43°42' E 007°19'0 0.0
2014-Sep-13 12:33N 43°42' E 007°19'0 0.0
2014-Sep-13 11:33N 43°42' E 007°19'0 0.0
2014-Sep-13 10:33N 43°42' E 007°19'0 0.0
2014-Sep-13 09:33N 43°42' E 007°19'0 0.0
2014-Sep-13 08:32N 43°42' E 007°19'0 0.0
2014-Sep-13 07:33N 43°42' E 007°19'0 0.0
2014-Sep-13 06:33N 43°42' E 007°19'0 0.0
2014-Sep-13 05:33N 43°42' E 007°19'0 0.0
2014-Sep-13 04:33N 43°42' E 007°19'0 0.0
2014-Sep-13 03:33N 43°42' E 007°19'0 0.0
2014-Sep-13 02:33N 43°42' E 007°19'0 0.0
2014-Sep-13 01:33N 43°42' E 007°19'0 0.0
2014-Sep-13 00:33N 43°42' E 007°19'0 0.0
2014-Sep-12 23:33N 43°42' E 007°19'0 0.0
2014-Sep-12 22:33N 43°42' E 007°19'0 0.0
2014-Sep-12 21:33N 43°42' E 007°19'0 0.0
2014-Sep-12 20:33N 43°42' E 007°19'0 0.0
2014-Sep-12 19:33N 43°42' E 007°19'0 0.0
2014-Sep-12 18:33N 43°42' E 007°19'0 0.0
2014-Sep-12 17:33N 43°42' E 007°19'0 0.0
2014-Sep-12 16:33N 43°42' E 007°19'0 0.0
2014-Sep-12 15:26N 43°42' E 007°19'0 0.0
2014-Sep-12 14:33N 43°42' E 007°19'0 0.0
2014-Sep-12 13:33N 43°42' E 007°19'0 0.0
2014-Sep-12 12:33N 43°42' E 007°19'0 0.0
2014-Sep-12 11:34N 43°42' E 007°19'0 0.0
2014-Sep-12 10:34N 43°42' E 007°19'0 0.0
2014-Sep-12 09:33N 43°42' E 007°19'0 0.0
2014-Sep-12 08:33N 43°42' E 007°19'0 0.0
2014-Sep-12 07:33N 43°42' E 007°19'0 0.0
2014-Sep-12 06:33N 43°42' E 007°19'0 0.0
2014-Sep-12 05:33N 43°42' E 007°19'0 0.0
2014-Sep-12 04:33N 43°42' E 007°19'0 0.0
2014-Sep-12 03:33N 43°42' E 007°19'0 0.0
2014-Sep-12 02:33N 43°42' E 007°19'0 0.0
2014-Sep-12 01:33N 43°42' E 007°19'0 0.0
2014-Sep-12 00:33N 43°42' E 007°19'0 0.0
2014-Sep-11 23:33N 43°42' E 007°19'0 0.0
2014-Sep-11 22:33N 43°42' E 007°19'0 0.0
2014-Sep-11 21:33N 43°42' E 007°19'0 0.0
2014-Sep-11 20:33N 43°42' E 007°19'0 0.0
2014-Sep-11 19:33N 43°42' E 007°19'0 0.0
2014-Sep-11 18:33N 43°42' E 007°19'0 0.0
2014-Sep-11 17:33N 43°42' E 007°19'0 0.0
2014-Sep-11 16:33N 43°42' E 007°19'0 0.0
2014-Sep-11 15:33N 43°42' E 007°19'0 0.0
2014-Sep-11 14:33N 43°42' E 007°19'0 0.0
2014-Sep-11 13:33N 43°42' E 007°19'0 0.0
2014-Sep-11 12:33N 43°42' E 007°19'0 0.0
2014-Sep-11 11:33N 43°42' E 007°19'0 0.0
2014-Sep-11 10:33N 43°42' E 007°19'0 0.0
2014-Sep-11 09:33N 43°42' E 007°19'0 0.0
2014-Sep-11 08:33N 43°42' E 007°19'0 0.0
2014-Sep-11 07:33N 43°42' E 007°19'0 0.0
2014-Sep-11 06:33N 43°42' E 007°19'0 0.0
2014-Sep-11 05:33N 43°42' E 007°19'0 0.0
2014-Sep-11 04:33N 43°42' E 007°19'0 0.0
2014-Sep-11 03:33N 43°42' E 007°19'0 0.0
2014-Sep-11 02:33N 43°42' E 007°19'0 0.0
2014-Sep-11 01:32N 43°42' E 007°19'0 0.0
2014-Sep-11 00:32N 43°42' E 007°19'0 0.0
2014-Sep-10 23:33N 43°42' E 007°19'0 0.0
2014-Sep-10 22:32N 43°42' E 007°19'0 0.0
2014-Sep-10 21:33N 43°42' E 007°19'0 0.0
2014-Sep-10 20:33N 43°42' E 007°19'0 0.0
2014-Sep-10 19:33N 43°42' E 007°19'0 0.0
2014-Sep-10 18:32N 43°42' E 007°19'0 0.0
2014-Sep-10 17:33N 43°42' E 007°19'0 0.0
2014-Sep-10 16:32N 43°42' E 007°19'0 0.0
2014-Sep-10 15:33N 43°42' E 007°19'0 0.0
2014-Sep-10 14:33N 43°42' E 007°19'0 0.0
2014-Sep-10 13:33N 43°42' E 007°19'0 0.0
2014-Sep-10 12:33N 43°42' E 007°19'0 0.0
2014-Sep-10 11:33N 43°42' E 007°19'0 0.0
2014-Sep-10 10:31N 43°42' E 007°19'0 0.0
2014-Sep-10 09:33N 43°42' E 007°19'0 0.0
2014-Sep-10 08:33N 43°42' E 007°19'0 0.0
2014-Sep-10 07:33N 43°42' E 007°19'0 0.0
2014-Sep-10 06:33N 43°42' E 007°19'0 0.0
2014-Sep-10 05:33N 43°42' E 007°19'0 0.0
2014-Sep-10 03:33N 43°42' E 007°19'0 0.0
2014-Sep-10 02:21N 43°42' E 007°19'0 0.0
2014-Sep-10 01:26N 43°42' E 007°19'0 0.0
2014-Sep-10 00:30N 43°42' E 007°19'0 0.0
2014-Sep-09 23:33N 43°42' E 007°19'0 0.0
2014-Sep-09 22:10N 43°42' E 007°19'0 0.0
2014-Sep-09 21:06N 43°42' E 007°19'0 0.0
2014-Sep-09 18:07N 43°42' E 007°19'0 0.0
2014-Sep-09 17:23N 43°42' E 007°19'0 0.0
2014-Sep-09 16:17N 43°42' E 007°19'0 0.0
2014-Sep-09 15:33N 43°42' E 007°19'0 0.0
2014-Sep-09 14:33N 43°42' E 007°19'0 0.0
2014-Sep-09 13:33N 43°42' E 007°19'0 0.0
2014-Sep-09 12:33N 43°42' E 007°19'0 0.0
2014-Sep-09 11:33N 43°42' E 007°19'0 0.0
2014-Sep-09 10:33N 43°42' E 007°19'0 0.0
2014-Sep-09 09:33N 43°42' E 007°19'0 0.0
2014-Sep-09 08:33N 43°42' E 007°19'0 0.0
2014-Sep-09 07:33N 43°42' E 007°19'0 0.0
2014-Sep-09 06:33N 43°42' E 007°19'0 0.0
2014-Sep-09 05:33N 43°42' E 007°19'0 0.0
2014-Sep-09 04:25N 43°42' E 007°19'0 0.0
2014-Sep-09 03:23N 43°42' E 007°19'0 0.0
2014-Sep-09 02:33N 43°42' E 007°19'0 0.0
2014-Sep-09 01:33N 43°42' E 007°19'0 0.0
2014-Sep-09 00:32N 43°42' E 007°19'0 0.0
2014-Sep-08 23:33N 43°42' E 007°19'0 0.0
2014-Sep-08 22:33N 43°42' E 007°19'0 0.0
2014-Sep-08 21:33N 43°42' E 007°19'0 0.0
2014-Sep-08 20:33N 43°42' E 007°19'0 0.0
2014-Sep-08 19:33N 43°42' E 007°19'0 0.0
2014-Sep-08 18:32N 43°42' E 007°19'0 0.0
2014-Sep-08 17:33N 43°42' E 007°19'0 0.0
2014-Sep-08 16:33N 43°42' E 007°19'0 0.0
2014-Sep-08 15:33N 43°42' E 007°19'0 0.0
2014-Sep-08 14:33N 43°42' E 007°19'0 0.0
2014-Sep-08 13:32N 43°42' E 007°19'0 0.0
2014-Sep-08 12:33N 43°42' E 007°19'0 0.0
2014-Sep-08 11:33N 43°42' E 007°19'  

Dump ship's entire track history